sensor_id;sensor_type;location;lat;lon;timestamp;P1;durP1;ratioP1;P2;durP2;ratioP2
23596;SDS011;40226;50.874;4.394;2023-12-20T00:00:58;0.10;;;0.10;;
23596;SDS011;40226;50.874;4.394;2023-12-20T00:03:24;0.10;;;0.10;;
23596;SDS011;40226;50.874;4.394;2023-12-20T00:05:49;0.13;;;0.13;;
23596;SDS011;40226;50.874;4.394;2023-12-20T00:08:15;2.75;;;1.67;;
23596;SDS011;40226;50.874;4.394;2023-12-20T00:10:42;0.10;;;0.10;;
23596;SDS011;40226;50.874;4.394;2023-12-20T00:13:09;0.63;;;0.63;;
23596;SDS011;40226;50.874;4.394;2023-12-20T00:15:34;1.00;;;0.90;;
23596;SDS011;40226;50.874;4.394;2023-12-20T00:18:00;0.57;;;0.52;;
23596;SDS011;40226;50.874;4.394;2023-12-20T00:20:26;0.10;;;0.10;;
23596;SDS011;40226;50.874;4.394;2023-12-20T00:22:54;0.20;;;0.20;;
23596;SDS011;40226;50.874;4.394;2023-12-20T00:25:23;0.60;;;0.60;;
23596;SDS011;40226;50.874;4.394;2023-12-20T00:27:49;0.20;;;0.20;;
23596;SDS011;40226;50.874;4.394;2023-12-20T00:30:15;3.60;;;1.15;;
23596;SDS011;40226;50.874;4.394;2023-12-20T00:32:41;0.30;;;0.30;;
23596;SDS011;40226;50.874;4.394;2023-12-20T00:35:11;0.75;;;0.55;;
23596;SDS011;40226;50.874;4.394;2023-12-20T00:37:38;0.20;;;0.20;;
23596;SDS011;40226;50.874;4.394;2023-12-20T00:40:03;0.20;;;0.20;;
23596;SDS011;40226;50.874;4.394;2023-12-20T00:42:29;0.13;;;0.13;;
23596;SDS011;40226;50.874;4.394;2023-12-20T00:44:55;0.20;;;0.20;;
23596;SDS011;40226;50.874;4.394;2023-12-20T00:47:21;4.85;;;2.42;;
23596;SDS011;40226;50.874;4.394;2023-12-20T00:49:47;0.30;;;0.30;;
23596;SDS011;40226;50.874;4.394;2023-12-20T00:52:12;0.65;;;0.65;;
23596;SDS011;40226;50.874;4.394;2023-12-20T00:54:39;0.40;;;0.40;;
23596;SDS011;40226;50.874;4.394;2023-12-20T00:57:04;0.20;;;0.20;;
23596;SDS011;40226;50.874;4.394;2023-12-20T00:59:30;0.35;;;0.35;;
23596;SDS011;40226;50.874;4.394;2023-12-20T01:01:56;1.38;;;1.35;;
23596;SDS011;40226;50.874;4.394;2023-12-20T01:04:21;3.78;;;1.02;;
23596;SDS011;40226;50.874;4.394;2023-12-20T01:06:47;0.43;;;0.43;;
23596;SDS011;40226;50.874;4.394;2023-12-20T01:09:12;0.57;;;0.57;;
23596;SDS011;40226;50.874;4.394;2023-12-20T01:11:38;0.25;;;0.25;;
23596;SDS011;40226;50.874;4.394;2023-12-20T01:14:03;0.20;;;0.20;;
23596;SDS011;40226;50.874;4.394;2023-12-20T01:16:30;0.22;;;0.22;;
23596;SDS011;40226;50.874;4.394;2023-12-20T01:18:55;1.73;;;0.73;;
23596;SDS011;40226;50.874;4.394;2023-12-20T01:21:21;0.10;;;0.10;;
23596;SDS011;40226;50.874;4.394;2023-12-20T01:23:46;0.47;;;0.47;;
23596;SDS011;40226;50.874;4.394;2023-12-20T01:26:12;0.45;;;0.45;;
23596;SDS011;40226;50.874;4.394;2023-12-20T01:28:38;0.57;;;0.43;;
23596;SDS011;40226;50.874;4.394;2023-12-20T01:31:03;0.60;;;0.60;;
23596;SDS011;40226;50.874;4.394;2023-12-20T01:33:29;0.10;;;0.10;;
23596;SDS011;40226;50.874;4.394;2023-12-20T01:35:55;4.97;;;1.10;;
23596;SDS011;40226;50.874;4.394;2023-12-20T01:38:20;2.70;;;0.47;;
23596;SDS011;40226;50.874;4.394;2023-12-20T01:40:46;5.28;;;0.60;;
23596;SDS011;40226;50.874;4.394;2023-12-20T01:43:11;0.75;;;0.75;;
23596;SDS011;40226;50.874;4.394;2023-12-20T01:45:38;7.47;;;1.20;;
23596;SDS011;40226;50.874;4.394;2023-12-20T01:48:03;2.20;;;0.73;;
23596;SDS011;40226;50.874;4.394;2023-12-20T01:50:31;0.20;;;0.20;;
23596;SDS011;40226;50.874;4.394;2023-12-20T01:52:58;0.10;;;0.10;;
23596;SDS011;40226;50.874;4.394;2023-12-20T01:55:27;2.17;;;0.82;;
23596;SDS011;40226;50.874;4.394;2023-12-20T01:57:56;0.10;;;0.10;;
23596;SDS011;40226;50.874;4.394;2023-12-20T02:00:22;0.20;;;0.20;;
23596;SDS011;40226;50.874;4.394;2023-12-20T02:02:49;0.40;;;0.40;;
23596;SDS011;40226;50.874;4.394;2023-12-20T02:05:17;0.10;;;0.10;;
23596;SDS011;40226;50.874;4.394;2023-12-20T02:07:43;0.25;;;0.22;;
23596;SDS011;40226;50.874;4.394;2023-12-20T02:10:09;0.98;;;0.85;;
23596;SDS011;40226;50.874;4.394;2023-12-20T02:12:34;0.30;;;0.30;;
23596;SDS011;40226;50.874;4.394;2023-12-20T02:15:00;0.30;;;0.30;;
23596;SDS011;40226;50.874;4.394;2023-12-20T02:17:26;0.10;;;0.10;;
23596;SDS011;40226;50.874;4.394;2023-12-20T02:19:53;0.10;;;0.10;;
23596;SDS011;40226;50.874;4.394;2023-12-20T02:22:18;0.20;;;0.20;;
23596;SDS011;40226;50.874;4.394;2023-12-20T02:24:44;8.70;;;3.00;;
23596;SDS011;40226;50.874;4.394;2023-12-20T02:27:09;0.13;;;0.13;;
23596;SDS011;40226;50.874;4.394;2023-12-20T02:29:36;0.65;;;0.65;;
23596;SDS011;40226;50.874;4.394;2023-12-20T02:32:02;0.75;;;0.73;;
23596;SDS011;40226;50.874;4.394;2023-12-20T02:34:28;0.73;;;0.73;;
23596;SDS011;40226;50.874;4.394;2023-12-20T02:36:54;0.20;;;0.20;;
23596;SDS011;40226;50.874;4.394;2023-12-20T02:39:20;0.28;;;0.28;;
23596;SDS011;40226;50.874;4.394;2023-12-20T02:41:47;1.00;;;0.65;;
23596;SDS011;40226;50.874;4.394;2023-12-20T02:44:13;0.17;;;0.17;;
23596;SDS011;40226;50.874;4.394;2023-12-20T02:46:39;10.57;;;1.77;;
23596;SDS011;40226;50.874;4.394;2023-12-20T02:49:05;0.40;;;0.32;;
23596;SDS011;40226;50.874;4.394;2023-12-20T02:51:31;0.10;;;0.10;;
23596;SDS011;40226;50.874;4.394;2023-12-20T02:53:57;0.20;;;0.20;;
23596;SDS011;40226;50.874;4.394;2023-12-20T02:56:23;0.80;;;0.68;;
23596;SDS011;40226;50.874;4.394;2023-12-20T02:58:48;0.57;;;0.57;;
23596;SDS011;40226;50.874;4.394;2023-12-20T03:01:14;22.23;;;2.25;;
23596;SDS011;40226;50.874;4.394;2023-12-20T03:03:39;0.47;;;0.47;;
23596;SDS011;40226;50.874;4.394;2023-12-20T03:06:05;0.30;;;0.30;;
23596;SDS011;40226;50.874;4.394;2023-12-20T03:08:31;0.32;;;0.32;;
23596;SDS011;40226;50.874;4.394;2023-12-20T03:10:56;0.20;;;0.20;;
23596;SDS011;40226;50.874;4.394;2023-12-20T03:13:23;0.28;;;0.28;;
23596;SDS011;40226;50.874;4.394;2023-12-20T03:15:49;0.10;;;0.10;;
23596;SDS011;40226;50.874;4.394;2023-12-20T03:18:14;0.20;;;0.20;;
23596;SDS011;40226;50.874;4.394;2023-12-20T03:20:40;0.60;;;0.60;;
23596;SDS011;40226;50.874;4.394;2023-12-20T03:23:06;1.10;;;1.10;;
23596;SDS011;40226;50.874;4.394;2023-12-20T03:25:32;0.77;;;0.63;;
23596;SDS011;40226;50.874;4.394;2023-12-20T03:27:57;0.10;;;0.10;;
23596;SDS011;40226;50.874;4.394;2023-12-20T03:30:23;0.60;;;0.60;;
23596;SDS011;40226;50.874;4.394;2023-12-20T03:32:49;0.10;;;0.10;;
23596;SDS011;40226;50.874;4.394;2023-12-20T03:35:14;0.20;;;0.20;;
23596;SDS011;40226;50.874;4.394;2023-12-20T03:37:40;1.13;;;1.10;;
23596;SDS011;40226;50.874;4.394;2023-12-20T03:40:06;0.15;;;0.15;;
23596;SDS011;40226;50.874;4.394;2023-12-20T03:42:32;0.80;;;0.80;;
23596;SDS011;40226;50.874;4.394;2023-12-20T03:44:57;0.47;;;0.47;;
23596;SDS011;40226;50.874;4.394;2023-12-20T03:47:23;0.82;;;0.82;;
23596;SDS011;40226;50.874;4.394;2023-12-20T03:49:48;0.30;;;0.30;;
23596;SDS011;40226;50.874;4.394;2023-12-20T03:52:14;0.30;;;0.30;;
23596;SDS011;40226;50.874;4.394;2023-12-20T03:54:40;2.53;;;1.27;;
23596;SDS011;40226;50.874;4.394;2023-12-20T03:57:07;0.20;;;0.20;;
23596;SDS011;40226;50.874;4.394;2023-12-20T03:59:36;1.20;;;1.17;;
23596;SDS011;40226;50.874;4.394;2023-12-20T04:02:02;0.20;;;0.20;;
23596;SDS011;40226;50.874;4.394;2023-12-20T04:04:28;0.88;;;0.88;;
23596;SDS011;40226;50.874;4.394;2023-12-20T04:06:54;0.38;;;0.38;;
23596;SDS011;40226;50.874;4.394;2023-12-20T04:09:19;0.10;;;0.10;;
23596;SDS011;40226;50.874;4.394;2023-12-20T04:11:45;0.20;;;0.20;;
23596;SDS011;40226;50.874;4.394;2023-12-20T04:14:11;0.50;;;0.50;;
23596;SDS011;40226;50.874;4.394;2023-12-20T04:16:36;0.65;;;0.65;;
23596;SDS011;40226;50.874;4.394;2023-12-20T04:19:02;0.60;;;0.60;;
23596;SDS011;40226;50.874;4.394;2023-12-20T04:21:28;3.42;;;1.30;;
23596;SDS011;40226;50.874;4.394;2023-12-20T04:23:53;0.30;;;0.30;;
23596;SDS011;40226;50.874;4.394;2023-12-20T04:26:19;0.77;;;0.77;;
23596;SDS011;40226;50.874;4.394;2023-12-20T04:28:44;4.53;;;1.23;;
23596;SDS011;40226;50.874;4.394;2023-12-20T04:31:10;0.60;;;0.60;;
23596;SDS011;40226;50.874;4.394;2023-12-20T04:33:36;0.20;;;0.20;;
23596;SDS011;40226;50.874;4.394;2023-12-20T04:36:01;0.20;;;0.20;;
23596;SDS011;40226;50.874;4.394;2023-12-20T04:38:27;1.08;;;0.68;;
23596;SDS011;40226;50.874;4.394;2023-12-20T04:40:52;0.38;;;0.38;;
23596;SDS011;40226;50.874;4.394;2023-12-20T04:43:18;3.55;;;1.95;;
23596;SDS011;40226;50.874;4.394;2023-12-20T04:45:44;0.70;;;0.50;;
23596;SDS011;40226;50.874;4.394;2023-12-20T04:48:09;0.20;;;0.20;;
23596;SDS011;40226;50.874;4.394;2023-12-20T04:50:35;0.38;;;0.38;;
23596;SDS011;40226;50.874;4.394;2023-12-20T04:53:00;0.35;;;0.35;;
23596;SDS011;40226;50.874;4.394;2023-12-20T04:55:26;0.43;;;0.43;;
23596;SDS011;40226;50.874;4.394;2023-12-20T04:57:52;1.40;;;1.30;;
23596;SDS011;40226;50.874;4.394;2023-12-20T05:00:17;2.05;;;1.00;;
23596;SDS011;40226;50.874;4.394;2023-12-20T05:02:43;1.27;;;0.68;;
23596;SDS011;40226;50.874;4.394;2023-12-20T05:05:09;1.15;;;1.05;;
23596;SDS011;40226;50.874;4.394;2023-12-20T05:07:35;0.75;;;0.75;;
23596;SDS011;40226;50.874;4.394;2023-12-20T05:10:00;1.08;;;1.02;;
23596;SDS011;40226;50.874;4.394;2023-12-20T05:12:26;2.05;;;1.95;;
23596;SDS011;40226;50.874;4.394;2023-12-20T05:14:52;28.58;;;1.95;;
23596;SDS011;40226;50.874;4.394;2023-12-20T05:17:17;0.32;;;0.32;;
23596;SDS011;40226;50.874;4.394;2023-12-20T05:19:45;22.75;;;5.10;;
23596;SDS011;40226;50.874;4.394;2023-12-20T05:22:11;24.92;;;5.30;;
23596;SDS011;40226;50.874;4.394;2023-12-20T05:24:36;20.95;;;6.25;;
23596;SDS011;40226;50.874;4.394;2023-12-20T05:27:02;22.48;;;5.60;;
23596;SDS011;40226;50.874;4.394;2023-12-20T05:29:28;22.05;;;5.18;;
23596;SDS011;40226;50.874;4.394;2023-12-20T05:31:53;20.17;;;5.28;;
23596;SDS011;40226;50.874;4.394;2023-12-20T05:34:19;22.70;;;5.90;;
23596;SDS011;40226;50.874;4.394;2023-12-20T05:36:45;21.65;;;6.07;;
23596;SDS011;40226;50.874;4.394;2023-12-20T05:39:11;27.42;;;6.80;;
23596;SDS011;40226;50.874;4.394;2023-12-20T05:41:36;23.60;;;6.60;;
23596;SDS011;40226;50.874;4.394;2023-12-20T05:44:02;27.55;;;6.22;;
23596;SDS011;40226;50.874;4.394;2023-12-20T05:46:28;20.33;;;5.00;;
23596;SDS011;40226;50.874;4.394;2023-12-20T05:48:53;16.80;;;5.22;;
23596;SDS011;40226;50.874;4.394;2023-12-20T05:51:19;21.25;;;5.70;;
23596;SDS011;40226;50.874;4.394;2023-12-20T05:53:44;19.38;;;5.45;;
23596;SDS011;40226;50.874;4.394;2023-12-20T05:56:10;28.05;;;5.35;;
23596;SDS011;40226;50.874;4.394;2023-12-20T05:58:36;20.17;;;5.05;;
23596;SDS011;40226;50.874;4.394;2023-12-20T06:01:05;26.98;;;5.63;;
23596;SDS011;40226;50.874;4.394;2023-12-20T06:03:32;18.60;;;5.53;;
23596;SDS011;40226;50.874;4.394;2023-12-20T06:05:58;21.90;;;5.78;;
23596;SDS011;40226;50.874;4.394;2023-12-20T06:08:25;19.35;;;4.82;;
23596;SDS011;40226;50.874;4.394;2023-12-20T06:10:51;17.65;;;5.22;;
23596;SDS011;40226;50.874;4.394;2023-12-20T06:13:16;18.13;;;4.95;;
23596;SDS011;40226;50.874;4.394;2023-12-20T06:15:42;32.05;;;6.70;;
23596;SDS011;40226;50.874;4.394;2023-12-20T06:18:08;25.00;;;5.07;;
23596;SDS011;40226;50.874;4.394;2023-12-20T06:20:33;28.60;;;5.15;;
23596;SDS011;40226;50.874;4.394;2023-12-20T06:22:59;27.50;;;4.82;;
23596;SDS011;40226;50.874;4.394;2023-12-20T06:25:25;19.42;;;4.70;;
23596;SDS011;40226;50.874;4.394;2023-12-20T06:27:50;17.50;;;4.35;;
23596;SDS011;40226;50.874;4.394;2023-12-20T06:30:16;22.27;;;4.25;;
23596;SDS011;40226;50.874;4.394;2023-12-20T06:32:42;21.63;;;4.38;;
23596;SDS011;40226;50.874;4.394;2023-12-20T06:35:08;18.67;;;5.00;;
23596;SDS011;40226;50.874;4.394;2023-12-20T06:37:34;15.98;;;3.63;;
23596;SDS011;40226;50.874;4.394;2023-12-20T06:40:00;20.67;;;5.07;;
23596;SDS011;40226;50.874;4.394;2023-12-20T06:42:26;18.48;;;5.05;;
23596;SDS011;40226;50.874;4.394;2023-12-20T06:44:51;18.30;;;5.00;;
23596;SDS011;40226;50.874;4.394;2023-12-20T06:47:17;17.58;;;4.57;;
23596;SDS011;40226;50.874;4.394;2023-12-20T06:49:43;19.55;;;4.72;;
23596;SDS011;40226;50.874;4.394;2023-12-20T06:52:09;21.50;;;4.80;;
23596;SDS011;40226;50.874;4.394;2023-12-20T06:54:35;25.58;;;5.10;;
23596;SDS011;40226;50.874;4.394;2023-12-20T06:57:01;22.08;;;4.57;;
23596;SDS011;40226;50.874;4.394;2023-12-20T06:59:28;22.35;;;4.53;;
23596;SDS011;40226;50.874;4.394;2023-12-20T07:01:54;24.75;;;4.57;;
23596;SDS011;40226;50.874;4.394;2023-12-20T07:04:20;16.63;;;4.88;;
23596;SDS011;40226;50.874;4.394;2023-12-20T07:06:47;27.17;;;5.15;;
23596;SDS011;40226;50.874;4.394;2023-12-20T07:09:16;18.58;;;4.45;;
23596;SDS011;40226;50.874;4.394;2023-12-20T07:11:41;22.95;;;4.90;;
23596;SDS011;40226;50.874;4.394;2023-12-20T07:14:07;13.52;;;4.40;;
23596;SDS011;40226;50.874;4.394;2023-12-20T07:16:33;25.45;;;5.72;;
23596;SDS011;40226;50.874;4.394;2023-12-20T07:19:00;26.20;;;5.38;;
23596;SDS011;40226;50.874;4.394;2023-12-20T07:21:25;26.50;;;4.25;;
23596;SDS011;40226;50.874;4.394;2023-12-20T07:23:51;23.13;;;4.60;;
23596;SDS011;40226;50.874;4.394;2023-12-20T07:26:17;17.40;;;4.80;;
23596;SDS011;40226;50.874;4.394;2023-12-20T07:28:42;25.33;;;5.07;;
23596;SDS011;40226;50.874;4.394;2023-12-20T07:31:08;25.27;;;4.40;;
23596;SDS011;40226;50.874;4.394;2023-12-20T07:33:33;19.63;;;4.03;;
23596;SDS011;40226;50.874;4.394;2023-12-20T07:35:59;24.58;;;4.28;;
23596;SDS011;40226;50.874;4.394;2023-12-20T07:38:25;19.38;;;4.40;;
23596;SDS011;40226;50.874;4.394;2023-12-20T07:40:51;18.35;;;5.43;;
23596;SDS011;40226;50.874;4.394;2023-12-20T07:43:17;21.73;;;4.72;;
23596;SDS011;40226;50.874;4.394;2023-12-20T07:45:42;21.42;;;5.07;;
23596;SDS011;40226;50.874;4.394;2023-12-20T07:48:08;18.60;;;4.28;;
23596;SDS011;40226;50.874;4.394;2023-12-20T07:50:34;24.67;;;5.38;;
23596;SDS011;40226;50.874;4.394;2023-12-20T07:53:00;18.65;;;4.10;;
23596;SDS011;40226;50.874;4.394;2023-12-20T07:55:26;21.08;;;4.60;;
23596;SDS011;40226;50.874;4.394;2023-12-20T07:57:52;16.15;;;4.18;;
23596;SDS011;40226;50.874;4.394;2023-12-20T08:00:18;21.10;;;4.65;;
23596;SDS011;40226;50.874;4.394;2023-12-20T08:02:44;21.42;;;3.95;;
23596;SDS011;40226;50.874;4.394;2023-12-20T08:05:10;26.40;;;3.88;;
23596;SDS011;40226;50.874;4.394;2023-12-20T08:07:35;16.05;;;3.60;;
23596;SDS011;40226;50.874;4.394;2023-12-20T08:10:01;22.40;;;4.82;;
23596;SDS011;40226;50.874;4.394;2023-12-20T08:12:27;22.70;;;3.70;;
23596;SDS011;40226;50.874;4.394;2023-12-20T08:14:53;18.00;;;4.10;;
23596;SDS011;40226;50.874;4.394;2023-12-20T08:17:19;23.77;;;3.92;;
23596;SDS011;40226;50.874;4.394;2023-12-20T08:19:45;16.58;;;4.20;;
23596;SDS011;40226;50.874;4.394;2023-12-20T08:22:10;15.43;;;4.07;;
23596;SDS011;40226;50.874;4.394;2023-12-20T08:24:37;21.27;;;3.92;;
23596;SDS011;40226;50.874;4.394;2023-12-20T08:27:03;30.73;;;4.93;;
23596;SDS011;40226;50.874;4.394;2023-12-20T08:29:29;21.45;;;4.68;;
23596;SDS011;40226;50.874;4.394;2023-12-20T08:31:55;16.35;;;4.32;;
23596;SDS011;40226;50.874;4.394;2023-12-20T08:34:22;15.27;;;4.35;;
23596;SDS011;40226;50.874;4.394;2023-12-20T08:36:48;24.02;;;4.50;;
23596;SDS011;40226;50.874;4.394;2023-12-20T08:39:16;21.77;;;3.95;;
23596;SDS011;40226;50.874;4.394;2023-12-20T08:41:41;17.35;;;4.03;;
23596;SDS011;40226;50.874;4.394;2023-12-20T08:44:07;24.52;;;4.40;;
23596;SDS011;40226;50.874;4.394;2023-12-20T08:46:33;19.95;;;3.83;;
23596;SDS011;40226;50.874;4.394;2023-12-20T08:48:59;22.58;;;4.25;;
23596;SDS011;40226;50.874;4.394;2023-12-20T08:51:25;21.77;;;4.03;;
23596;SDS011;40226;50.874;4.394;2023-12-20T08:53:51;16.75;;;3.95;;
23596;SDS011;40226;50.874;4.394;2023-12-20T08:56:17;20.10;;;3.55;;
23596;SDS011;40226;50.874;4.394;2023-12-20T08:58:43;21.17;;;3.97;;
23596;SDS011;40226;50.874;4.394;2023-12-20T09:01:09;25.00;;;3.92;;
23596;SDS011;40226;50.874;4.394;2023-12-20T09:03:34;22.25;;;4.55;;
23596;SDS011;40226;50.874;4.394;2023-12-20T09:06:00;19.20;;;3.70;;
23596;SDS011;40226;50.874;4.394;2023-12-20T09:08:26;16.83;;;4.07;;
23596;SDS011;40226;50.874;4.394;2023-12-20T09:10:51;16.10;;;3.80;;
23596;SDS011;40226;50.874;4.394;2023-12-20T09:13:17;23.35;;;3.88;;
23596;SDS011;40226;50.874;4.394;2023-12-20T09:15:42;21.67;;;4.90;;
23596;SDS011;40226;50.874;4.394;2023-12-20T09:18:08;19.52;;;4.00;;
23596;SDS011;40226;50.874;4.394;2023-12-20T09:20:34;21.02;;;3.63;;
23596;SDS011;40226;50.874;4.394;2023-12-20T09:23:00;12.18;;;3.30;;
23596;SDS011;40226;50.874;4.394;2023-12-20T09:25:25;25.35;;;4.63;;
23596;SDS011;40226;50.874;4.394;2023-12-20T09:27:51;20.38;;;4.30;;
23596;SDS011;40226;50.874;4.394;2023-12-20T09:30:18;18.15;;;3.70;;
23596;SDS011;40226;50.874;4.394;2023-12-20T09:32:43;18.15;;;4.13;;
23596;SDS011;40226;50.874;4.394;2023-12-20T09:35:10;19.55;;;4.13;;
23596;SDS011;40226;50.874;4.394;2023-12-20T09:37:35;21.05;;;5.20;;
23596;SDS011;40226;50.874;4.394;2023-12-20T09:40:01;19.08;;;4.07;;
23596;SDS011;40226;50.874;4.394;2023-12-20T09:45:22;23.90;;;4.35;;
23596;SDS011;40226;50.874;4.394;2023-12-20T09:47:52;19.50;;;4.15;;
23596;SDS011;40226;50.874;4.394;2023-12-20T09:50:18;19.40;;;3.63;;
23596;SDS011;40226;50.874;4.394;2023-12-20T09:52:45;22.42;;;4.53;;
23596;SDS011;40226;50.874;4.394;2023-12-20T09:55:16;16.35;;;4.07;;
23596;SDS011;40226;50.874;4.394;2023-12-20T09:57:44;26.98;;;4.75;;
23596;SDS011;40226;50.874;4.394;2023-12-20T10:00:10;20.13;;;4.05;;
23596;SDS011;40226;50.874;4.394;2023-12-20T10:02:36;22.35;;;4.03;;
23596;SDS011;40226;50.874;4.394;2023-12-20T10:05:07;14.30;;;3.70;;
23596;SDS011;40226;50.874;4.394;2023-12-20T10:07:37;17.65;;;3.60;;
23596;SDS011;40226;50.874;4.394;2023-12-20T10:10:02;13.40;;;3.70;;
23596;SDS011;40226;50.874;4.394;2023-12-20T10:12:29;14.50;;;3.72;;
23596;SDS011;40226;50.874;4.394;2023-12-20T10:14:55;24.80;;;4.60;;
23596;SDS011;40226;50.874;4.394;2023-12-20T10:17:22;21.85;;;4.18;;
23596;SDS011;40226;50.874;4.394;2023-12-20T10:19:49;14.65;;;3.83;;
23596;SDS011;40226;50.874;4.394;2023-12-20T10:22:14;19.02;;;5.30;;
23596;SDS011;40226;50.874;4.394;2023-12-20T10:24:40;16.75;;;4.55;;
23596;SDS011;40226;50.874;4.394;2023-12-20T10:27:06;20.15;;;4.35;;
23596;SDS011;40226;50.874;4.394;2023-12-20T10:29:36;23.17;;;4.60;;
23596;SDS011;40226;50.874;4.394;2023-12-20T10:34:51;18.25;;;3.63;;
23596;SDS011;40226;50.874;4.394;2023-12-20T10:37:17;16.40;;;4.22;;
23596;SDS011;40226;50.874;4.394;2023-12-20T10:39:43;22.17;;;3.78;;
23596;SDS011;40226;50.874;4.394;2023-12-20T10:42:11;18.38;;;3.78;;
23596;SDS011;40226;50.874;4.394;2023-12-20T10:44:38;17.02;;;3.47;;
23596;SDS011;40226;50.874;4.394;2023-12-20T10:47:04;19.45;;;3.92;;
23596;SDS011;40226;50.874;4.394;2023-12-20T10:49:31;17.88;;;4.10;;
23596;SDS011;40226;50.874;4.394;2023-12-20T10:52:01;26.65;;;4.03;;
23596;SDS011;40226;50.874;4.394;2023-12-20T10:54:29;19.83;;;3.63;;
23596;SDS011;40226;50.874;4.394;2023-12-20T10:56:55;18.27;;;4.45;;
23596;SDS011;40226;50.874;4.394;2023-12-20T10:59:22;15.80;;;3.80;;
23596;SDS011;40226;50.874;4.394;2023-12-20T11:01:49;18.65;;;4.15;;
23596;SDS011;40226;50.874;4.394;2023-12-20T11:04:18;23.15;;;4.93;;
23596;SDS011;40226;50.874;4.394;2023-12-20T11:06:53;17.58;;;3.67;;
23596;SDS011;40226;50.874;4.394;2023-12-20T11:09:24;25.25;;;3.80;;
23596;SDS011;40226;50.874;4.394;2023-12-20T11:17:12;14.80;;;3.80;;
23596;SDS011;40226;50.874;4.394;2023-12-20T11:22:17;23.52;;;4.18;;
23596;SDS011;40226;50.874;4.394;2023-12-20T11:24:46;13.32;;;3.60;;
23596;SDS011;40226;50.874;4.394;2023-12-20T11:27:13;22.15;;;4.15;;
23596;SDS011;40226;50.874;4.394;2023-12-20T11:29:39;21.73;;;4.28;;
23596;SDS011;40226;50.874;4.394;2023-12-20T11:37:28;27.80;;;4.85;;
23596;SDS011;40226;50.874;4.394;2023-12-20T11:40:05;27.25;;;4.65;;
23596;SDS011;40226;50.874;4.394;2023-12-20T11:42:40;15.15;;;3.58;;
23596;SDS011;40226;50.874;4.394;2023-12-20T11:45:10;24.80;;;5.38;;
23596;SDS011;40226;50.874;4.394;2023-12-20T11:47:40;17.23;;;4.50;;
23596;SDS011;40226;50.874;4.394;2023-12-20T11:50:11;25.52;;;5.00;;
23596;SDS011;40226;50.874;4.394;2023-12-20T11:52:36;25.25;;;4.88;;
23596;SDS011;40226;50.874;4.394;2023-12-20T11:55:02;20.85;;;4.57;;
23596;SDS011;40226;50.874;4.394;2023-12-20T11:57:29;19.80;;;4.85;;
23596;SDS011;40226;50.874;4.394;2023-12-20T11:59:58;16.98;;;4.18;;
23596;SDS011;40226;50.874;4.394;2023-12-20T12:02:24;27.25;;;4.30;;
23596;SDS011;40226;50.874;4.394;2023-12-20T12:04:50;22.33;;;4.95;;
23596;SDS011;40226;50.874;4.394;2023-12-20T12:07:16;16.70;;;3.20;;
23596;SDS011;40226;50.874;4.394;2023-12-20T12:09:42;23.40;;;4.63;;
23596;SDS011;40226;50.874;4.394;2023-12-20T12:12:08;20.55;;;4.47;;
23596;SDS011;40226;50.874;4.394;2023-12-20T12:14:36;16.90;;;4.38;;
23596;SDS011;40226;50.874;4.394;2023-12-20T12:17:02;21.65;;;4.30;;
23596;SDS011;40226;50.874;4.394;2023-12-20T12:19:29;17.27;;;3.67;;
23596;SDS011;40226;50.874;4.394;2023-12-20T12:24:45;20.33;;;4.68;;
23596;SDS011;40226;50.874;4.394;2023-12-20T12:27:12;23.98;;;3.78;;
23596;SDS011;40226;50.874;4.394;2023-12-20T12:29:38;17.05;;;4.47;;
23596;SDS011;40226;50.874;4.394;2023-12-20T12:32:04;23.23;;;4.07;;
23596;SDS011;40226;50.874;4.394;2023-12-20T12:34:34;24.75;;;4.97;;
23596;SDS011;40226;50.874;4.394;2023-12-20T12:37:00;18.17;;;4.22;;
23596;SDS011;40226;50.874;4.394;2023-12-20T12:39:26;21.48;;;4.78;;
23596;SDS011;40226;50.874;4.394;2023-12-20T12:41:52;18.05;;;4.30;;
23596;SDS011;40226;50.874;4.394;2023-12-20T12:44:18;25.23;;;4.97;;
23596;SDS011;40226;50.874;4.394;2023-12-20T12:46:45;21.15;;;5.03;;
23596;SDS011;40226;50.874;4.394;2023-12-20T12:49:12;16.88;;;4.10;;
23596;SDS011;40226;50.874;4.394;2023-12-20T12:51:38;23.88;;;4.03;;
23596;SDS011;40226;50.874;4.394;2023-12-20T12:54:03;27.05;;;7.88;;
23596;SDS011;40226;50.874;4.394;2023-12-20T12:56:29;18.50;;;4.18;;
23596;SDS011;40226;50.874;4.394;2023-12-20T12:58:55;21.58;;;4.53;;
23596;SDS011;40226;50.874;4.394;2023-12-20T13:01:21;17.35;;;4.25;;
23596;SDS011;40226;50.874;4.394;2023-12-20T13:03:47;17.42;;;4.43;;
23596;SDS011;40226;50.874;4.394;2023-12-20T13:06:12;25.70;;;4.38;;
23596;SDS011;40226;50.874;4.394;2023-12-20T13:08:38;18.92;;;3.90;;
23596;SDS011;40226;50.874;4.394;2023-12-20T13:11:04;13.75;;;3.08;;
23596;SDS011;40226;50.874;4.394;2023-12-20T13:13:30;20.52;;;4.45;;
23596;SDS011;40226;50.874;4.394;2023-12-20T13:15:56;16.08;;;4.15;;
23596;SDS011;40226;50.874;4.394;2023-12-20T13:18:22;24.42;;;5.22;;
23596;SDS011;40226;50.874;4.394;2023-12-20T13:20:47;20.48;;;3.97;;
23596;SDS011;40226;50.874;4.394;2023-12-20T13:23:16;21.15;;;4.88;;
23596;SDS011;40226;50.874;4.394;2023-12-20T13:25:43;24.80;;;5.13;;
23596;SDS011;40226;50.874;4.394;2023-12-20T13:28:10;24.10;;;5.40;;
23596;SDS011;40226;50.874;4.394;2023-12-20T13:30:36;16.63;;;4.00;;
23596;SDS011;40226;50.874;4.394;2023-12-20T13:33:02;17.35;;;4.32;;
23596;SDS011;40226;50.874;4.394;2023-12-20T13:35:27;21.65;;;5.00;;
23596;SDS011;40226;50.874;4.394;2023-12-20T13:37:53;20.25;;;4.70;;
23596;SDS011;40226;50.874;4.394;2023-12-20T13:40:19;16.88;;;4.63;;
23596;SDS011;40226;50.874;4.394;2023-12-20T13:42:44;18.33;;;3.90;;
23596;SDS011;40226;50.874;4.394;2023-12-20T13:45:10;23.88;;;5.38;;
23596;SDS011;40226;50.874;4.394;2023-12-20T13:47:36;18.83;;;3.88;;
23596;SDS011;40226;50.874;4.394;2023-12-20T13:50:02;18.33;;;3.55;;
23596;SDS011;40226;50.874;4.394;2023-12-20T13:52:29;22.00;;;4.22;;
23596;SDS011;40226;50.874;4.394;2023-12-20T13:54:54;17.63;;;4.88;;
23596;SDS011;40226;50.874;4.394;2023-12-20T13:57:21;20.08;;;4.45;;
23596;SDS011;40226;50.874;4.394;2023-12-20T13:59:47;22.02;;;4.40;;
23596;SDS011;40226;50.874;4.394;2023-12-20T14:02:13;12.60;;;3.72;;
23596;SDS011;40226;50.874;4.394;2023-12-20T14:04:39;16.10;;;3.75;;
23596;SDS011;40226;50.874;4.394;2023-12-20T14:07:05;15.18;;;3.90;;
23596;SDS011;40226;50.874;4.394;2023-12-20T14:09:32;20.50;;;5.05;;
23596;SDS011;40226;50.874;4.394;2023-12-20T14:11:58;22.08;;;4.38;;
23596;SDS011;40226;50.874;4.394;2023-12-20T14:14:24;17.95;;;4.15;;
23596;SDS011;40226;50.874;4.394;2023-12-20T14:16:50;15.80;;;4.15;;
23596;SDS011;40226;50.874;4.394;2023-12-20T14:19:16;19.08;;;3.92;;
23596;SDS011;40226;50.874;4.394;2023-12-20T14:21:41;19.80;;;4.10;;
23596;SDS011;40226;50.874;4.394;2023-12-20T14:24:07;14.00;;;4.00;;
23596;SDS011;40226;50.874;4.394;2023-12-20T14:26:33;20.33;;;4.40;;
23596;SDS011;40226;50.874;4.394;2023-12-20T14:28:58;25.20;;;4.55;;
23596;SDS011;40226;50.874;4.394;2023-12-20T14:31:24;27.80;;;5.10;;
23596;SDS011;40226;50.874;4.394;2023-12-20T14:33:50;18.58;;;4.32;;
23596;SDS011;40226;50.874;4.394;2023-12-20T14:36:18;19.38;;;4.35;;
23596;SDS011;40226;50.874;4.394;2023-12-20T14:38:45;20.52;;;4.75;;
23596;SDS011;40226;50.874;4.394;2023-12-20T14:41:12;19.08;;;4.03;;
23596;SDS011;40226;50.874;4.394;2023-12-20T14:43:37;18.05;;;4.55;;
23596;SDS011;40226;50.874;4.394;2023-12-20T14:46:03;13.13;;;3.60;;
23596;SDS011;40226;50.874;4.394;2023-12-20T14:48:30;16.75;;;3.33;;
23596;SDS011;40226;50.874;4.394;2023-12-20T14:50:57;22.42;;;4.28;;
23596;SDS011;40226;50.874;4.394;2023-12-20T14:53:24;20.38;;;4.22;;